Impacts METAR Board INFO
IDs:

KLAS - Las Vegas/McCarran I, NV, US

Updated at: 1241 UTC 18 Dec 2017
Potential Impact None Slight Moderate High
Time18/00Z 18/01Z 18/02Z 18/03Z 18/04Z 18/05Z 18/06Z 18/07Z 18/08Z 18/09Z 18/10Z 18/11Z 18/12Z
VIS10 10 10 10 10 10 10 10 10 10 10 10 10
CIG-- -- -- -- -- -- -- -- -- -- -- -- --
CoverFEWFEWFEWFEWFEWFEWFEWFEWFEWFEWFEWFEWFEW
FltCatVFRVFRVFRVFRVFRVFRVFRVFRVFRVFRVFRVFRVFR
WX--------------------------
WDir33036033034035030303020600350200
WSpd13 13 11 11 10 9 9 11 11 8 0 5 4
WGst-- -- -- -- -- -- -- -- -- -- -- -- --
Raw hourly METARs
KLAS 172356Z 33013KT 10SM FEW250 13/M08 A3006 RMK AO2 SLP173 T01331083 10139 20106 53003
KLAS 180056Z 36013KT 10SM FEW250 12/M08 A3008 RMK AO2 SLP183 T01221083
KLAS 180156Z 33011KT 10SM FEW250 12/M08 A3008 RMK AO2 SLP185 T01171083
KLAS 180256Z 34011KT 10SM FEW250 12/M08 A3010 RMK AO2 SLP191 T01171083 51014
KLAS 180356Z 35010KT 10SM FEW250 12/M09 A3013 RMK AO2 SLP200 T01171089
KLAS 180456Z 03009KT 10SM FEW250 11/M09 A3014 RMK AO2 SLP203 T01061094
KLAS 180556Z 03009KT 10SM FEW250 09/M09 A3015 RMK AO2 SLP210 T00941094 10133 20089 51017
KLAS 180656Z 03011KT 10SM FEW250 09/M09 A3017 RMK AO2 SLP215 T00891094
KLAS 180756Z 02011KT 10SM FEW250 09/M09 A3017 RMK AO2 SLP213 T00941094 401390083
KLAS 180856Z 06008KT 10SM FEW250 08/M08 A3017 RMK AO2 SLP214 T00781078 51005
KLAS 180956Z 00000KT 10SM FEW250 06/M09 A3018 RMK AO2 SLP220 T00611089
KLAS 181056Z 35005KT 10SM FEW250 07/M09 A3019 RMK AO2 SLP221 T00671089
KLAS 181156Z 20004KT 10SM FEW250 04/M09 A3017 RMK AO2 SLP218 T00441089 10094 20044 50002